createdAt,value
2022-12-09T00:00:58.539Z,99265.19
2022-12-09T00:03:43.860Z,99266.22
2022-12-09T00:06:34.691Z,99259.88
2022-12-09T00:09:13.793Z,99250.13
2022-12-09T00:12:05.782Z,99261.81
2022-12-09T00:14:44.360Z,99271.84
2022-12-09T00:17:26.584Z,99258.03
2022-12-09T00:20:06.857Z,99270.84
2022-12-09T00:22:48.864Z,99266.22
2022-12-09T00:25:42.902Z,99263.75
2022-12-09T00:28:21.852Z,99259.22
2022-12-09T00:31:17.033Z,99262.56
2022-12-09T00:33:57.020Z,99252.41
2022-12-09T00:36:41.941Z,99269.81
2022-12-09T00:39:27.878Z,99268.72
2022-12-09T00:42:02.714Z,99278.19
2022-12-09T00:44:50.485Z,99278.84
2022-12-09T00:47:28.416Z,99287.78
2022-12-09T00:50:17.977Z,99291.06
2022-12-09T00:52:57.417Z,99300.00
2022-12-09T00:55:36.622Z,99293.75
2022-12-09T00:58:17.640Z,99288.97
2022-12-09T01:00:59.905Z,99289.44
2022-12-09T01:03:38.540Z,99282.25
2022-12-09T01:06:34.273Z,99278.75
2022-12-09T01:09:18.316Z,99271.28
2022-12-09T01:12:03.075Z,99265.66
2022-12-09T01:14:49.129Z,99268.81
2022-12-09T01:17:29.585Z,99265.66
2022-12-09T01:20:11.322Z,99267.13
2022-12-09T01:22:52.609Z,99261.81
2022-12-09T01:25:42.543Z,99270.91
2022-12-09T01:28:34.761Z,99275.97
2022-12-09T01:31:28.151Z,99278.47
2022-12-09T01:34:19.363Z,99270.72
2022-12-09T01:37:13.201Z,99272.09
2022-12-09T01:39:59.455Z,99273.94
2022-12-09T01:42:58.094Z,99269.53
2022-12-09T01:45:58.169Z,99262.72
2022-12-09T01:48:47.816Z,99263.00
2022-12-09T01:51:26.188Z,99266.03
2022-12-09T01:54:09.925Z,99254.06
2022-12-09T01:56:52.455Z,99254.44
2022-12-09T01:59:45.519Z,99250.19
2022-12-09T02:02:28.215Z,99253.69
2022-12-09T02:05:12.060Z,99262.16
2022-12-09T02:07:53.168Z,99260.59
2022-12-09T02:10:41.994Z,99259.50
2022-12-09T02:13:59.242Z,99269.09
2022-12-09T02:17:05.914Z,99264.75
2022-12-09T02:20:01.878Z,99258.19
2022-12-09T02:22:53.325Z,99255.91
2022-12-09T02:25:41.764Z,99265.13
2022-12-09T02:28:45.244Z,99267.13
2022-12-09T02:31:50.276Z,99271.50
2022-12-09T02:34:40.069Z,99275.97
2022-12-09T02:37:42.719Z,99257.66
2022-12-09T02:40:34.692Z,99252.16
2022-12-09T02:43:22.884Z,99248.06
2022-12-09T02:46:17.494Z,99253.50
2022-12-09T02:49:04.869Z,99238.03
2022-12-09T02:52:03.676Z,99242.72
2022-12-09T02:54:47.662Z,99230.03
2022-12-09T02:57:31.902Z,99237.22
2022-12-09T03:00:15.742Z,99246.16
2022-12-09T03:02:58.612Z,99246.31
2022-12-09T03:05:52.659Z,99237.38
2022-12-09T03:08:56.770Z,99229.56
2022-12-09T03:11:40.649Z,99234.25
2022-12-09T03:14:44.051Z,99220.69
2022-12-09T03:17:29.013Z,99226.63
2022-12-09T03:20:21.456Z,99240.59
2022-12-09T03:23:06.501Z,99223.97
2022-12-09T03:25:53.171Z,99231.97
2022-12-09T03:28:36.157Z,99226.16
2022-12-09T03:31:22.319Z,99228.44
2022-12-09T03:34:09.732Z,99219.59
2022-12-09T03:36:54.485Z,99216.66
2022-12-09T03:39:44.486Z,99233.22
2022-12-09T03:42:34.194Z,99240.97
2022-12-09T03:45:18.996Z,99242.16
2022-12-09T03:48:02.350Z,99247.34
2022-12-09T03:50:40.738Z,99242.00
2022-12-09T03:53:29.176Z,99235.44
2022-12-09T03:56:27.175Z,99237.94
2022-12-09T03:59:08.847Z,99224.13
2022-12-09T04:01:46.490Z,99229.56
2022-12-09T04:04:31.588Z,99231.56
2022-12-09T04:07:17.585Z,99221.81
2022-12-09T04:10:08.254Z,99227.81
2022-12-09T04:12:55.889Z,99229.47
2022-12-09T04:15:37.513Z,99235.63
2022-12-09T04:18:21.688Z,99236.41
2022-12-09T04:21:00.503Z,99239.44
2022-12-09T04:23:50.370Z,99238.41
2022-12-09T04:26:36.237Z,99235.09
2022-12-09T04:29:25.229Z,99227.44
2022-12-09T04:32:10.585Z,99221.44
2022-12-09T04:34:52.473Z,99231.13
2022-12-09T04:37:34.887Z,99225.69
2022-12-09T04:40:30.261Z,99222.94
2022-12-09T04:43:22.393Z,99211.16
2022-12-09T04:46:20.536Z,99203.31
2022-12-09T04:49:14.759Z,99206.91
2022-12-09T04:52:03.121Z,99209.31
2022-12-09T04:54:50.925Z,99214.66
2022-12-09T04:57:33.208Z,99219.22
2022-12-09T05:00:14.355Z,99214.25
2022-12-09T05:02:58.383Z,99209.69
2022-12-09T05:05:43.917Z,99206.53
2022-12-09T05:08:31.810Z,99208.28
2022-12-09T05:11:24.988Z,99199.94
2022-12-09T05:14:03.793Z,99203.78
2022-12-09T05:16:44.823Z,99209.31
2022-12-09T05:19:25.974Z,99201.13
2022-12-09T05:22:08.564Z,99207.34
2022-12-09T05:24:50.312Z,99204.63
2022-12-09T05:27:31.867Z,99199.66
2022-12-09T05:30:16.362Z,99201.56
2022-12-09T05:33:06.061Z,99195.84
2022-12-09T05:35:55.736Z,99203.69
2022-12-09T05:38:37.615Z,99209.31
2022-12-09T05:41:17.821Z,99215.19
2022-12-09T05:44:05.143Z,99206.19
2022-12-09T05:46:54.257Z,99204.53
2022-12-09T05:49:39.300Z,99205.16
2022-12-09T05:52:23.515Z,99201.31
2022-12-09T05:55:09.519Z,99205.06
2022-12-09T05:58:02.773Z,99193.41
2022-12-09T06:00:50.876Z,99188.75
2022-12-09T06:03:37.726Z,99192.09
2022-12-09T06:06:28.206Z,99179.97
2022-12-09T06:09:12.365Z,99190.84
2022-12-09T06:12:01.849Z,99186.41
2022-12-09T06:14:38.135Z,99188.72
2022-12-09T06:17:19.522Z,99184.63
2022-12-09T06:20:01.133Z,99179.50
2022-12-09T06:22:50.244Z,99185.13
2022-12-09T06:25:33.915Z,99181.16
2022-12-09T06:28:11.947Z,99183.53
2022-12-09T06:30:53.966Z,99178.47
2022-12-09T06:33:58.300Z,99182.63
2022-12-09T06:36:55.438Z,99176.63
2022-12-09T06:39:45.517Z,99179.03
2022-12-09T06:42:28.914Z,99178.31
2022-12-09T06:45:16.034Z,99177.47
2022-12-09T06:47:58.064Z,99178.59
2022-12-09T06:50:40.397Z,99166.53
2022-12-09T06:53:25.327Z,99176.72
2022-12-09T06:56:11.815Z,99174.88
2022-12-09T06:59:05.991Z,99174.53
2022-12-09T07:01:54.383Z,99171.41
2022-12-09T07:04:36.584Z,99177.56
2022-12-09T07:07:21.089Z,99176.84
2022-12-09T07:10:05.007Z,99170.19
2022-12-09T07:12:46.406Z,99179.41
2022-12-09T07:15:33.983Z,99181.16
2022-12-09T07:18:25.185Z,99177.47
2022-12-09T07:21:16.290Z,99177.94
2022-12-09T07:23:57.777Z,99171.75
2022-12-09T07:26:42.063Z,99165.94
2022-12-09T07:29:27.682Z,99167.81
2022-12-09T07:32:11.765Z,99156.47
2022-12-09T07:34:55.740Z,99152.41
2022-12-09T07:37:51.123Z,99153.31
2022-12-09T07:40:33.541Z,99157.75
2022-12-09T07:43:18.740Z,99148.56
2022-12-09T07:46:05.991Z,99153.97
2022-12-09T07:48:51.202Z,99151.84
2022-12-09T07:51:37.035Z,99166.19
2022-12-09T07:54:31.961Z,99161.41
2022-12-09T07:57:18.411Z,99165.59
2022-12-09T08:00:00.643Z,99163.47
2022-12-09T08:02:47.158Z,99163.81
2022-12-09T08:05:32.809Z,99159.22
2022-12-09T08:08:21.414Z,99166.19
2022-12-09T08:11:28.620Z,99159.22
2022-12-09T08:14:12.505Z,99153.25
2022-12-09T08:16:56.649Z,99148.53
2022-12-09T08:19:55.765Z,99146.34
2022-12-09T08:22:37.727Z,99151.72
2022-12-09T08:25:27.113Z,99157.31
2022-12-09T08:28:18.836Z,99146.72
2022-12-09T08:31:03.087Z,99143.59
2022-12-09T08:33:52.404Z,99136.69
2022-12-09T08:36:36.980Z,99133.59
2022-12-09T08:39:22.740Z,99137.59
2022-12-09T08:42:04.948Z,99132.75
2022-12-09T08:44:55.836Z,99128.75
2022-12-09T08:47:39.523Z,99126.16
2022-12-09T08:50:29.743Z,99120.34
2022-12-09T08:53:11.967Z,99117.41
2022-12-09T08:56:12.905Z,99113.44
2022-12-09T08:58:58.016Z,99111.59
2022-12-09T09:01:44.808Z,99103.34
2022-12-09T09:04:32.819Z,99104.75
2022-12-09T09:07:00.917Z,99106.09
2022-12-09T09:09:53.190Z,99102.50
2022-12-09T09:12:43.511Z,99101.69
2022-12-09T09:15:25.781Z,99095.22
2022-12-09T09:18:14.350Z,99093.31
2022-12-09T09:21:02.581Z,99095.63
2022-12-09T09:23:53.332Z,99094.81
2022-12-09T09:26:43.377Z,99090.66
2022-12-09T09:29:31.817Z,99088.72
2022-12-09T09:32:13.400Z,99081.59
2022-12-09T09:35:10.268Z,99074.38
2022-12-09T09:38:00.775Z,99076.91
2022-12-09T09:41:04.366Z,99068.56
2022-12-09T09:43:59.996Z,99067.03
2022-12-09T09:46:47.953Z,99062.06
2022-12-09T09:49:40.819Z,99053.13
2022-12-09T09:52:38.246Z,99054.88
2022-12-09T09:55:57.498Z,99047.00
2022-12-09T09:58:42.759Z,99050.06
2022-12-09T10:01:28.693Z,99046.53
2022-12-09T10:04:19.316Z,99035.63
2022-12-09T10:07:33.312Z,99041.69
2022-12-09T10:10:38.492Z,99026.19
2022-12-09T10:14:03.045Z,99027.84
2022-12-09T10:36:12.382Z,98985.28
2022-12-09T10:38:48.784Z,98968.34
2022-12-09T10:42:04.045Z,98964.00
2022-12-09T10:44:45.149Z,98962.59
2022-12-09T10:47:54.622Z,98955.13
2022-12-09T10:50:50.152Z,98951.84
2022-12-09T10:53:33.256Z,98931.22
2022-12-09T10:56:42.505Z,98926.97
2022-12-09T10:59:36.771Z,98913.41
2022-12-09T11:02:28.796Z,98902.84
2022-12-09T11:08:45.440Z,98893.81
2022-12-09T11:11:19.890Z,98886.41
2022-12-09T11:14:04.939Z,98871.44
2022-12-09T11:17:14.459Z,98860.16
2022-12-09T11:20:11.578Z,98847.38
2022-12-09T11:23:25.683Z,98850.09
2022-12-09T11:26:24.540Z,98846.38
2022-12-09T11:29:39.675Z,98850.72
2022-12-09T11:32:18.793Z,98845.78
2022-12-09T11:35:11.389Z,98833.00
2022-12-09T11:38:01.995Z,98826.84
2022-12-09T11:41:03.511Z,98844.97
2022-12-09T11:43:57.556Z,98837.13
2022-12-09T11:46:44.227Z,98839.00
2022-12-09T11:49:33.219Z,98844.13
2022-12-09T11:52:31.881Z,98836.31
2022-12-09T11:55:09.912Z,98831.38
2022-12-09T11:58:14.869Z,98810.78
2022-12-09T12:01:03.615Z,98794.94
2022-12-09T12:03:50.440Z,98797.63
2022-12-09T12:07:00.536Z,98805.41
2022-12-09T12:09:52.401Z,98809.75
2022-12-09T12:12:49.482Z,98804.38
2022-12-09T12:15:39.287Z,98800.84
2022-12-09T12:18:29.727Z,98808.25
2022-12-09T12:21:31.879Z,98808.50
2022-12-09T12:24:25.619Z,98805.66
2022-12-09T12:27:49.475Z,98797.59
2022-12-09T12:30:50.317Z,98795.94
2022-12-09T12:34:23.518Z,98787.09
2022-12-09T12:37:27.703Z,98786.25
2022-12-09T12:40:46.296Z,98784.41
2022-12-09T12:44:46.808Z,98772.06
2022-12-09T12:48:27.076Z,98770.44
2022-12-09T12:51:25.171Z,98764.06
2022-12-09T12:54:18.793Z,98753.16
2022-12-09T12:57:14.395Z,98746.97
2022-12-09T13:00:23.912Z,98744.94
2022-12-09T13:03:22.056Z,98751.94
2022-12-09T13:06:10.984Z,98746.56
2022-12-09T13:09:02.683Z,98746.78
2022-12-09T13:12:17.815Z,98740.81
2022-12-09T13:18:14.914Z,98735.22
2022-12-09T13:21:06.417Z,98733.81
2022-12-09T13:24:21.720Z,98722.06
2022-12-09T13:27:21.658Z,98718.34
2022-12-09T13:30:06.546Z,98714.47
2022-12-09T13:33:02.779Z,98713.63
2022-12-09T13:36:17.256Z,98715.69
2022-12-09T13:39:03.011Z,98718.56
2022-12-09T13:42:14.238Z,98718.56
2022-12-09T13:45:25.645Z,98708.69
2022-12-09T13:48:14.817Z,98708.91
2022-12-09T13:51:03.404Z,98711.97
2022-12-09T13:53:51.826Z,98716.09
2022-12-09T13:56:31.227Z,98708.47
2022-12-09T13:59:40.840Z,98708.91
2022-12-09T14:02:35.992Z,98704.97
2022-12-09T14:05:40.467Z,98702.94
2022-12-09T14:08:30.591Z,98700.84
2022-12-09T14:11:38.056Z,98691.81
2022-12-09T14:14:27.955Z,98695.53
2022-12-09T14:17:09.493Z,98694.28
2022-12-09T14:20:31.190Z,98688.94
2022-12-09T14:23:29.746Z,98693.25
2022-12-09T14:26:13.749Z,98684.19
2022-12-09T14:29:07.377Z,98688.09
2022-12-09T14:32:31.063Z,98680.50
2022-12-09T14:35:18.888Z,98680.69
2022-12-09T14:39:08.025Z,98677.41
2022-12-09T14:42:07.455Z,98675.13
2022-12-09T14:44:55.127Z,98668.34
2022-12-09T14:48:01.927Z,98659.91
2022-12-09T14:50:52.785Z,98650.84
2022-12-09T14:53:37.421Z,98646.09
2022-12-09T14:56:13.235Z,98643.47
2022-12-09T14:58:59.736Z,98637.69
2022-12-09T15:02:17.376Z,98628.84
2022-12-09T15:05:02.392Z,98624.31
2022-12-09T15:08:00.207Z,98616.09
2022-12-09T15:10:50.529Z,98615.03
2022-12-09T15:13:45.345Z,98607.03
2022-12-09T15:16:28.452Z,98609.88
2022-12-09T15:22:09.061Z,98588.09
2022-12-09T15:27:50.878Z,98574.69
2022-12-09T15:30:42.598Z,98586.22
2022-12-09T15:33:35.204Z,98590.97
2022-12-09T15:36:25.438Z,98594.66
2022-12-09T15:39:19.959Z,98592.97
2022-12-09T15:42:10.943Z,98589.28
2022-12-09T15:45:10.442Z,98575.91
2022-12-09T15:47:46.265Z,98568.94
2022-12-09T15:50:45.549Z,98573.25
2022-12-09T15:53:53.793Z,98552.25
2022-12-09T15:56:54.966Z,98557.22
2022-12-09T16:00:07.404Z,98545.25
2022-12-09T16:02:59.359Z,98545.63
2022-12-09T16:05:43.970Z,98546.03
2022-12-09T16:08:31.608Z,98535.19
2022-12-09T16:11:44.247Z,98537.00
2022-12-09T16:14:49.426Z,98529.81
2022-12-09T16:18:07.854Z,98532.53
2022-12-09T16:21:03.410Z,98525.06
2022-12-09T16:23:39.415Z,98518.03
2022-12-09T16:26:34.372Z,98511.84
2022-12-09T16:29:26.611Z,98511.00
2022-12-09T16:32:19.253Z,98509.00
2022-12-09T16:35:53.572Z,98507.00
2022-12-09T16:38:44.382Z,98510.25
2022-12-09T16:41:25.911Z,98516.16
2022-12-09T16:44:37.540Z,98502.09
2022-12-09T16:47:27.617Z,98492.94
2022-12-09T16:53:19.712Z,98478.16
2022-12-09T16:56:26.928Z,98462.63
2022-12-09T16:59:06.409Z,98450.31
2022-12-09T17:01:47.945Z,98458.00
2022-12-09T17:04:38.751Z,98442.31
2022-12-09T17:07:23.537Z,98452.44
2022-12-09T17:10:16.575Z,98459.00
2022-12-09T17:12:58.761Z,98453.50
2022-12-09T17:15:36.430Z,98442.31
2022-12-09T17:18:30.205Z,98438.28
2022-12-09T17:21:36.890Z,98435.31
2022-12-09T17:24:31.442Z,98433.91
2022-12-09T17:27:13.554Z,98432.47
2022-12-09T17:29:54.836Z,98434.06
2022-12-09T17:32:33.417Z,98418.34
2022-12-09T17:35:20.445Z,98423.31
2022-12-09T17:38:29.455Z,98419.16
2022-12-09T17:41:21.046Z,98412.56
2022-12-09T17:44:10.417Z,98410.16
2022-12-09T17:46:56.556Z,98405.63
2022-12-09T17:49:48.232Z,98405.34
2022-12-09T17:52:42.219Z,98404.72
2022-12-09T17:55:36.496Z,98413.06
2022-12-09T17:58:27.512Z,98399.66
2022-12-09T18:01:16.504Z,98397.94
2022-12-09T18:04:15.844Z,98396.28
2022-12-09T18:07:05.851Z,98396.72
2022-12-09T18:09:54.381Z,98381.88
2022-12-09T18:12:52.143Z,98380.19
2022-12-09T18:15:32.822Z,98391.31
2022-12-09T18:18:25.690Z,98381.25
2022-12-09T18:21:15.326Z,98381.44
2022-12-09T18:23:59.574Z,98367.06
2022-12-09T18:26:47.769Z,98375.44
2022-12-09T18:29:27.015Z,98354.53
2022-12-09T18:32:04.395Z,98348.59
2022-12-09T18:34:48.082Z,98345.47
2022-12-09T18:37:32.671Z,98332.19
2022-12-09T18:40:21.426Z,98332.44
2022-12-09T18:42:52.559Z,98321.88
2022-12-09T18:45:46.319Z,98330.91
2022-12-09T18:48:28.163Z,98332.63
2022-12-09T18:51:04.315Z,98345.41
2022-12-09T18:53:45.570Z,98327.28
2022-12-09T18:56:26.423Z,98309.50
2022-12-09T18:59:12.438Z,98300.97
2022-12-09T19:02:05.794Z,98298.91
2022-12-09T19:04:55.046Z,98302.69
2022-12-09T19:07:47.400Z,98302.50
2022-12-09T19:10:33.815Z,98297.13
2022-12-09T19:13:28.794Z,98291.31
2022-12-09T19:16:01.014Z,98282.81
2022-12-09T19:18:56.399Z,98295.91
2022-12-09T19:21:47.303Z,98290.72
2022-12-09T19:24:38.442Z,98295.31
2022-12-09T19:27:40.032Z,98294.28
2022-12-09T19:30:23.400Z,98268.97
2022-12-09T19:33:12.957Z,98278.59
2022-12-09T19:35:49.010Z,98297.59
2022-12-09T19:38:39.945Z,98307.44
2022-12-09T19:41:23.350Z,98301.44
2022-12-09T19:44:08.766Z,98300.25
2022-12-09T19:47:00.597Z,98296.38
2022-12-09T19:49:33.529Z,98287.28
2022-12-09T19:52:19.454Z,98279.03
2022-12-09T19:55:00.643Z,98276.06
2022-12-09T19:57:43.853Z,98286.09
2022-12-09T20:00:30.139Z,98289.38
2022-12-09T20:03:20.505Z,98272.03
2022-12-09T20:06:01.551Z,98262.13
2022-12-09T20:08:48.037Z,98252.31
2022-12-09T20:11:41.172Z,98249.31
2022-12-09T20:14:25.188Z,98239.13
2022-12-09T20:17:15.164Z,98232.50
2022-12-09T20:20:09.766Z,98215.81
2022-12-09T20:22:54.989Z,98218.78
2022-12-09T20:25:28.715Z,98218.34
2022-12-09T20:28:08.789Z,98215.19
2022-12-09T20:30:59.359Z,98209.25
2022-12-09T20:33:46.423Z,98205.34
2022-12-09T20:36:28.889Z,98193.06
2022-12-09T20:39:35.524Z,98195.84
2022-12-09T20:42:19.251Z,98188.16
2022-12-09T20:45:00.033Z,98187.00
2022-12-09T20:47:39.392Z,98188.66
2022-12-09T20:50:25.714Z,98182.38
2022-12-09T20:53:21.657Z,98179.66
2022-12-09T20:56:12.346Z,98175.72
2022-12-09T20:59:12.903Z,98174.53
2022-12-09T21:02:06.409Z,98162.75
2022-12-09T21:05:02.034Z,98157.63
2022-12-09T21:07:49.125Z,98139.09
2022-12-09T21:10:33.449Z,98143.84
2022-12-09T21:13:18.331Z,98137.31
2022-12-09T21:15:56.288Z,98133.16
2022-12-09T21:18:44.126Z,98137.84
2022-12-09T21:21:31.093Z,98131.88
2022-12-09T21:24:14.354Z,98136.72
2022-12-09T21:26:56.248Z,98153.63
2022-12-09T21:29:50.529Z,98151.41
2022-12-09T21:32:40.418Z,98167.34
2022-12-09T21:35:32.324Z,98162.25
2022-12-09T21:38:28.306Z,98160.59
2022-12-09T21:41:24.738Z,98151.66
2022-12-09T21:44:00.113Z,98170.44
2022-12-09T21:46:43.939Z,98190.13
2022-12-09T21:49:16.716Z,98168.22
2022-12-09T21:52:13.480Z,98195.47
2022-12-09T21:54:58.399Z,98171.84
2022-12-09T21:57:40.582Z,98152.63
2022-12-09T22:00:30.277Z,98168.69
2022-12-09T22:03:12.700Z,98185.59
2022-12-09T22:06:06.427Z,98171.13
2022-12-09T22:08:54.319Z,98172.38
2022-12-09T22:11:41.100Z,98177.53
2022-12-09T22:14:30.704Z,98171.09
2022-12-09T22:17:18.543Z,98167.97
2022-12-09T22:20:49.082Z,98170.66
2022-12-09T22:23:21.147Z,98163.81
2022-12-09T22:26:07.144Z,98162.19
2022-12-09T22:28:47.239Z,98170.34
2022-12-09T22:31:43.423Z,98176.16
2022-12-09T22:34:14.405Z,98170.78
2022-12-09T22:36:57.237Z,98176.34
2022-12-09T22:39:49.377Z,98162.94
2022-12-09T22:42:33.113Z,98167.00
2022-12-09T22:45:36.043Z,98162.94
2022-12-09T22:48:26.286Z,98148.00
2022-12-09T22:51:21.023Z,98158.03
2022-12-09T22:54:00.388Z,98167.00
2022-12-09T22:56:51.668Z,98163.34
2022-12-09T22:59:42.679Z,98162.81
2022-12-09T23:02:23.047Z,98154.81
2022-12-09T23:05:28.039Z,98155.75
2022-12-09T23:08:15.444Z,98156.63
2022-12-09T23:11:07.461Z,98154.03
2022-12-09T23:13:56.052Z,98154.63
2022-12-09T23:16:47.102Z,98159.38
2022-12-09T23:19:45.315Z,98151.59
2022-12-09T23:22:37.784Z,98157.28
2022-12-09T23:25:18.935Z,98150.47
2022-12-09T23:28:05.495Z,98161.06
2022-12-09T23:30:49.432Z,98149.53
2022-12-09T23:33:31.037Z,98146.63
2022-12-09T23:36:37.428Z,98134.25
2022-12-09T23:39:20.375Z,98134.34
2022-12-09T23:42:08.809Z,98134.91
2022-12-09T23:44:58.483Z,98138.34
2022-12-09T23:47:41.441Z,98138.34
2022-12-09T23:50:29.714Z,98143.13
2022-12-09T23:53:16.333Z,98153.63
2022-12-09T23:56:06.403Z,98152.94
2022-12-09T23:58:47.509Z,98155.16
